createdAt,value
2023-02-14T00:01:11.420Z,1.48
2023-02-14T00:03:38.975Z,1.44
2023-02-14T00:06:08.292Z,1.42
2023-02-14T00:08:36.525Z,1.37
2023-02-14T00:11:04.480Z,1.25
2023-02-14T00:13:31.902Z,1.37
2023-02-14T00:15:58.437Z,1.14
2023-02-14T00:18:47.434Z,1.42
2023-02-14T00:21:14.903Z,1.42
2023-02-14T00:23:42.346Z,1.34
2023-02-14T00:26:14.525Z,1.24
2023-02-14T00:28:41.962Z,1.23
2023-02-14T00:31:09.616Z,1.16
2023-02-14T00:33:38.526Z,1.19
2023-02-14T00:36:07.607Z,1.07
2023-02-14T00:38:35.649Z,1.10
2023-02-14T00:41:04.865Z,1.09
2023-02-14T00:43:32.559Z,1.02
2023-02-14T00:46:00.058Z,0.89
2023-02-14T00:48:27.716Z,1.12
2023-02-14T00:50:56.733Z,1.06
2023-02-14T00:53:24.346Z,1.20
2023-02-14T00:55:51.762Z,1.10
2023-02-14T00:58:19.233Z,0.93
2023-02-14T01:00:46.731Z,0.72
2023-02-14T01:03:14.226Z,0.72
2023-02-14T01:05:41.942Z,0.58
2023-02-14T01:08:10.808Z,0.51
2023-02-14T01:10:38.807Z,0.54
2023-02-14T01:13:06.770Z,0.59
2023-02-14T01:15:34.907Z,0.54
2023-02-14T01:18:02.330Z,0.63
2023-02-14T01:20:29.774Z,0.51
2023-02-14T01:22:57.314Z,0.51
2023-02-14T01:25:26.334Z,0.47
2023-02-14T01:27:53.976Z,0.27
2023-02-14T01:30:22.276Z,0.35
2023-02-14T01:32:49.800Z,0.35
2023-02-14T01:35:17.466Z,0.14
2023-02-14T01:37:44.902Z,0.24
2023-02-14T01:40:14.197Z,0.04
2023-02-14T01:42:43.017Z,0.17
2023-02-14T01:45:19.464Z,0.22
2023-02-14T01:47:50.929Z,0.23
2023-02-14T01:50:22.638Z,0.17
2023-02-14T01:52:53.766Z,0.28
2023-02-14T01:55:24.582Z,-0.03
2023-02-14T01:57:57.148Z,0.26
2023-02-14T02:00:42.674Z,0.26
2023-02-14T02:03:11.777Z,0.25
2023-02-14T02:05:45.322Z,0.41
2023-02-14T02:08:13.220Z,0.35
2023-02-14T02:10:40.685Z,0.38
2023-02-14T02:13:16.684Z,0.37
2023-02-14T02:15:54.746Z,0.52
2023-02-14T02:18:32.740Z,0.68
2023-02-14T02:21:31.922Z,0.83
2023-02-14T02:24:29.544Z,0.85
2023-02-14T02:27:19.919Z,0.91
2023-02-14T02:30:10.290Z,1.05
2023-02-14T02:33:11.419Z,1.05
2023-02-14T02:36:09.809Z,1.10
2023-02-14T02:38:55.402Z,0.99
2023-02-14T02:41:33.592Z,0.95
2023-02-14T02:44:08.771Z,0.91
2023-02-14T02:46:49.995Z,0.83
2023-02-14T02:49:59.314Z,0.79
2023-02-14T02:52:55.712Z,0.81
2023-02-14T02:55:29.173Z,0.84
2023-02-14T02:57:56.841Z,0.81
2023-02-14T03:00:25.826Z,0.89
2023-02-14T03:03:15.832Z,0.85
2023-02-14T03:05:44.253Z,0.95
2023-02-14T03:08:13.045Z,0.87
2023-02-14T03:10:40.820Z,0.90
2023-02-14T03:13:39.734Z,0.87
2023-02-14T03:16:26.464Z,0.83
2023-02-14T03:19:11.238Z,0.63
2023-02-14T03:21:51.063Z,0.44
2023-02-14T03:24:28.478Z,0.75
2023-02-14T03:27:04.695Z,0.69
2023-02-14T03:29:44.710Z,0.63
2023-02-14T03:32:17.652Z,0.58
2023-02-14T03:34:53.841Z,0.25
2023-02-14T03:37:27.348Z,0.35
2023-02-14T03:40:06.342Z,0.30
2023-02-14T03:42:37.640Z,0.39
2023-02-14T03:45:10.155Z,0.44
2023-02-14T03:47:41.858Z,0.43
2023-02-14T03:50:15.509Z,0.23
2023-02-14T03:52:45.551Z,0.46
2023-02-14T03:55:18.137Z,0.61
2023-02-14T03:57:53.712Z,0.70
2023-02-14T04:00:21.635Z,0.72
2023-02-14T04:02:54.014Z,0.69
2023-02-14T04:05:25.839Z,0.66
2023-02-14T04:07:55.311Z,0.69
2023-02-14T04:10:25.246Z,0.63
2023-02-14T04:12:52.755Z,0.60
2023-02-14T04:15:20.319Z,0.50
2023-02-14T04:18:05.266Z,0.58
2023-02-14T04:20:32.808Z,0.54
2023-02-14T04:23:02.312Z,0.49
2023-02-14T04:25:32.320Z,0.55
2023-02-14T04:27:59.772Z,0.48
2023-02-14T04:30:27.324Z,0.52
2023-02-14T04:32:54.850Z,0.58
2023-02-14T04:35:22.281Z,0.47
2023-02-14T04:37:49.785Z,0.51
2023-02-14T04:40:17.735Z,0.32
2023-02-14T04:42:47.061Z,0.27
2023-02-14T04:45:15.070Z,0.25
2023-02-14T04:47:42.559Z,0.22
2023-02-14T04:50:10.773Z,0.01
2023-02-14T04:52:38.338Z,0.12
2023-02-14T04:55:06.604Z,0.30
2023-02-14T04:57:34.166Z,0.27
2023-02-14T05:00:02.993Z,0.15
2023-02-14T05:02:30.515Z,0.32
2023-02-14T05:04:57.996Z,0.19
2023-02-14T05:07:25.461Z,0.29
2023-02-14T05:09:52.976Z,0.25
2023-02-14T05:12:20.601Z,0.22
2023-02-14T05:14:48.145Z,0.15
2023-02-14T05:17:17.033Z,0.26
2023-02-14T05:19:44.520Z,0.23
2023-02-14T05:22:12.075Z,0.16
2023-02-14T05:24:40.033Z,0.20
2023-02-14T05:27:07.719Z,0.21
2023-02-14T05:29:35.215Z,0.32
2023-02-14T05:32:02.690Z,0.28
2023-02-14T05:34:31.569Z,0.14
2023-02-14T05:36:59.073Z,0.25
2023-02-14T05:39:26.542Z,0.27
2023-02-14T05:41:53.988Z,0.28
2023-02-14T05:44:21.657Z,0.25
2023-02-14T05:46:49.171Z,0.30
2023-02-14T05:49:16.599Z,0.29
2023-02-14T05:51:45.415Z,0.07
2023-02-14T05:54:12.986Z,0.28
2023-02-14T05:56:40.536Z,0.42
2023-02-14T05:59:08.028Z,0.41
2023-02-14T06:01:35.462Z,0.40
2023-02-14T06:04:03.156Z,0.29
2023-02-14T06:06:30.721Z,0.26
2023-02-14T06:08:59.545Z,0.15
2023-02-14T06:11:27.002Z,-0.09
2023-02-14T06:13:54.455Z,-0.20
2023-02-14T06:16:21.972Z,-0.15
2023-02-14T06:18:49.608Z,-0.17
2023-02-14T06:21:17.082Z,-0.25
2023-02-14T06:23:44.521Z,-0.10
2023-02-14T06:26:13.387Z,-0.05
2023-02-14T06:28:40.833Z,-0.10
2023-02-14T06:31:08.379Z,0.01
2023-02-14T06:33:35.988Z,-0.11
2023-02-14T06:36:03.404Z,-0.02
2023-02-14T06:38:30.826Z,-0.01
2023-02-14T06:41:04.316Z,0.07
2023-02-14T06:43:33.466Z,0.07
2023-02-14T06:46:00.974Z,0.14
2023-02-14T06:48:28.536Z,0.16
2023-02-14T06:50:55.964Z,0.22
2023-02-14T06:53:23.369Z,0.26
2023-02-14T06:55:50.851Z,0.35
2023-02-14T06:58:18.306Z,0.42
2023-02-14T07:00:47.153Z,0.48
2023-02-14T07:03:14.976Z,0.51
2023-02-14T07:05:42.458Z,0.45
2023-02-14T07:08:10.248Z,0.47
2023-02-14T07:10:37.991Z,0.55
2023-02-14T07:13:05.868Z,0.58
2023-02-14T07:15:33.655Z,0.49
2023-02-14T07:18:02.436Z,0.56
2023-02-14T07:20:29.972Z,0.58
2023-02-14T07:22:57.412Z,0.60
2023-02-14T07:25:24.834Z,0.63
2023-02-14T07:27:52.330Z,0.60
2023-02-14T07:30:19.955Z,0.70
2023-02-14T07:32:47.436Z,0.70
2023-02-14T07:35:16.202Z,0.81
2023-02-14T07:37:43.610Z,0.93
2023-02-14T07:40:14.846Z,0.98
2023-02-14T07:42:42.992Z,1.09
2023-02-14T07:45:21.121Z,1.11
2023-02-14T07:47:50.916Z,1.29
2023-02-14T07:50:20.678Z,1.37
2023-02-14T07:52:48.365Z,1.52
2023-02-14T07:55:16.270Z,1.62
2023-02-14T07:57:43.751Z,1.65
2023-02-14T08:00:11.937Z,1.74
2023-02-14T08:02:39.357Z,1.82
2023-02-14T08:05:07.570Z,1.93
2023-02-14T08:07:36.595Z,1.97
2023-02-14T08:10:04.264Z,2.06
2023-02-14T08:12:49.572Z,2.13
2023-02-14T08:15:34.738Z,2.28
2023-02-14T08:18:02.218Z,2.37
2023-02-14T08:20:29.812Z,2.41
2023-02-14T08:22:58.756Z,2.42
2023-02-14T08:25:26.243Z,2.53
2023-02-14T08:27:55.121Z,2.73
2023-02-14T08:30:23.067Z,2.74
2023-02-14T08:32:50.612Z,2.94
2023-02-14T08:35:18.307Z,3.01
2023-02-14T08:37:45.772Z,3.05
2023-02-14T08:40:14.884Z,3.15
2023-02-14T08:42:42.702Z,3.23
2023-02-14T08:45:10.856Z,3.37
2023-02-14T08:47:40.163Z,3.46
2023-02-14T08:50:09.959Z,3.55
2023-02-14T08:52:37.489Z,3.63
2023-02-14T08:55:05.173Z,3.62
2023-02-14T08:57:34.060Z,3.76
2023-02-14T09:00:01.536Z,3.92
2023-02-14T09:02:29.109Z,4.03
2023-02-14T09:04:56.545Z,4.14
2023-02-14T09:07:23.981Z,4.31
2023-02-14T09:09:51.448Z,4.40
2023-02-14T09:12:18.893Z,4.46
2023-02-14T09:14:47.727Z,4.59
2023-02-14T09:17:16.160Z,4.75
2023-02-14T09:19:43.944Z,4.91
2023-02-14T09:22:12.771Z,4.96
2023-02-14T09:24:41.390Z,5.10
2023-02-14T09:27:10.536Z,5.27
2023-02-14T09:29:38.249Z,5.38
2023-02-14T09:32:07.533Z,5.43
2023-02-14T09:34:36.266Z,5.60
2023-02-14T09:37:21.523Z,5.61
2023-02-14T09:39:49.176Z,5.84
2023-02-14T09:42:37.808Z,5.95
2023-02-14T09:45:12.040Z,5.86
2023-02-14T09:47:47.461Z,6.07
2023-02-14T09:50:20.890Z,6.30
2023-02-14T09:52:53.246Z,6.25
2023-02-14T09:55:27.754Z,6.51
2023-02-14T09:58:10.154Z,6.65
2023-02-14T10:00:43.498Z,6.74
2023-02-14T10:03:49.972Z,6.92
2023-02-14T10:06:31.394Z,6.87
2023-02-14T10:09:08.254Z,7.14
2023-02-14T10:11:46.635Z,6.87
2023-02-14T10:14:18.188Z,7.38
2023-02-14T10:16:49.841Z,7.28
2023-02-14T10:19:25.200Z,7.38
2023-02-14T10:22:02.802Z,7.60
2023-02-14T10:24:36.103Z,7.73
2023-02-14T10:27:13.330Z,7.81
2023-02-14T10:29:42.806Z,7.97
2023-02-14T10:32:15.463Z,7.90
2023-02-14T10:34:50.067Z,8.11
2023-02-14T10:37:32.800Z,8.42
2023-02-14T10:40:21.832Z,8.23
2023-02-14T10:42:59.964Z,8.17
2023-02-14T10:45:35.344Z,8.68
2023-02-14T10:48:09.997Z,8.80
2023-02-14T10:50:47.726Z,8.89
2023-02-14T10:53:20.812Z,8.95
2023-02-14T10:55:53.888Z,9.00
2023-02-14T10:58:23.593Z,9.11
2023-02-14T11:00:59.209Z,9.19
2023-02-14T11:03:28.386Z,9.21
2023-02-14T11:05:57.374Z,9.28
2023-02-14T11:08:28.230Z,9.37
2023-02-14T11:11:01.019Z,9.47
2023-02-14T11:13:35.218Z,9.54
2023-02-14T11:16:05.354Z,9.61
2023-02-14T11:18:35.680Z,9.68
2023-02-14T11:21:08.175Z,9.72
2023-02-14T11:23:38.690Z,9.74
2023-02-14T11:26:11.625Z,9.84
2023-02-14T11:28:49.685Z,9.88
2023-02-14T11:31:26.434Z,9.98
2023-02-14T11:33:54.294Z,10.05
2023-02-14T11:36:24.713Z,10.08
2023-02-14T11:38:58.947Z,10.20
2023-02-14T11:41:26.372Z,10.32
2023-02-14T11:44:12.820Z,10.28
2023-02-14T11:46:52.748Z,10.34
2023-02-14T11:49:30.083Z,10.53
2023-02-14T11:52:02.864Z,10.56
2023-02-14T11:54:36.549Z,10.59
2023-02-14T11:57:09.565Z,10.62
2023-02-14T11:59:44.136Z,10.71
2023-02-14T12:02:26.595Z,10.82
2023-02-14T12:04:58.337Z,10.80
2023-02-14T12:07:31.789Z,10.83
2023-02-14T12:10:18.346Z,10.84
2023-02-14T12:12:54.304Z,10.86
2023-02-14T12:15:36.546Z,10.94
2023-02-14T12:18:30.744Z,10.96
2023-02-14T12:21:05.089Z,11.06
2023-02-14T12:23:41.920Z,11.05
2023-02-14T12:26:18.620Z,11.13
2023-02-14T12:28:52.105Z,11.14
2023-02-14T12:31:20.472Z,11.19
2023-02-14T12:33:50.219Z,11.23
2023-02-14T12:36:31.596Z,11.36
2023-02-14T12:39:09.839Z,11.35
2023-02-14T12:41:45.988Z,11.31
2023-02-14T12:44:22.187Z,11.36
2023-02-14T12:47:04.383Z,11.37
2023-02-14T12:49:49.317Z,11.41
2023-02-14T12:52:39.117Z,11.45
2023-02-14T12:55:28.367Z,11.51
2023-02-14T12:58:03.418Z,11.49
2023-02-14T13:00:38.536Z,11.47
2023-02-14T13:03:31.802Z,11.68
2023-02-14T13:06:04.929Z,11.58
2023-02-14T13:08:49.297Z,11.56
2023-02-14T13:11:34.324Z,11.60
2023-02-14T13:14:15.767Z,11.63
2023-02-14T13:16:50.420Z,11.64
2023-02-14T13:19:33.844Z,11.69
2023-02-14T13:22:03.069Z,11.62
2023-02-14T13:24:36.372Z,11.74
2023-02-14T13:27:07.996Z,11.77
2023-02-14T13:29:44.181Z,11.74
2023-02-14T13:32:15.030Z,11.74
2023-02-14T13:34:45.043Z,11.81
2023-02-14T13:37:15.199Z,11.93
2023-02-14T13:39:46.621Z,11.94
2023-02-14T13:42:51.889Z,12.03
2023-02-14T13:46:04.980Z,11.92
2023-02-14T13:48:33.033Z,11.85
2023-02-14T13:51:02.823Z,11.86
2023-02-14T13:53:33.934Z,11.96
2023-02-14T13:56:02.061Z,11.92
2023-02-14T13:58:31.240Z,11.91
2023-02-14T14:00:59.027Z,12.00
2023-02-14T14:03:55.153Z,12.11
2023-02-14T14:06:22.642Z,12.08
2023-02-14T14:08:56.984Z,12.18
2023-02-14T14:11:59.465Z,12.24
2023-02-14T14:14:36.234Z,12.19
2023-02-14T14:17:19.425Z,12.31
2023-02-14T14:19:47.534Z,12.41
2023-02-14T14:22:16.609Z,12.32
2023-02-14T14:24:57.033Z,12.32
2023-02-14T14:27:27.087Z,12.32
2023-02-14T14:29:58.369Z,12.35
2023-02-14T14:32:30.457Z,12.39
2023-02-14T14:34:59.703Z,12.30
2023-02-14T14:37:29.575Z,12.60
2023-02-14T14:39:58.811Z,12.83
2023-02-14T14:42:31.810Z,13.14
2023-02-14T14:45:03.284Z,13.47
2023-02-14T14:47:38.041Z,14.06
2023-02-14T14:50:10.528Z,14.67
2023-02-14T14:52:40.640Z,15.20
2023-02-14T14:55:10.154Z,15.54
2023-02-14T14:57:39.552Z,15.68
2023-02-14T15:00:20.364Z,16.06
2023-02-14T15:03:06.440Z,16.27
2023-02-14T15:05:36.730Z,16.45
2023-02-14T15:08:20.822Z,16.43
2023-02-14T15:10:52.374Z,16.38
2023-02-14T15:13:48.710Z,16.54
2023-02-14T15:16:22.937Z,16.11
2023-02-14T15:18:52.078Z,15.75
2023-02-14T15:21:19.792Z,15.96
2023-02-14T15:23:47.692Z,15.86
2023-02-14T15:26:19.814Z,15.42
2023-02-14T15:28:55.666Z,15.13
2023-02-14T15:31:29.017Z,14.95
2023-02-14T15:33:57.576Z,14.67
2023-02-14T15:36:25.410Z,14.95
2023-02-14T15:38:54.344Z,14.89
2023-02-14T15:41:24.219Z,14.75
2023-02-14T15:43:53.996Z,15.14
2023-02-14T15:46:32.150Z,15.12
2023-02-14T15:49:01.702Z,14.65
2023-02-14T15:51:32.585Z,14.66
2023-02-14T15:54:02.768Z,14.75
2023-02-14T15:56:32.432Z,14.21
2023-02-14T15:59:02.230Z,14.15
2023-02-14T16:01:33.587Z,13.95
2023-02-14T16:04:03.582Z,13.40
2023-02-14T16:06:37.187Z,12.91
2023-02-14T16:09:06.953Z,11.98
2023-02-14T16:11:36.995Z,11.44
2023-02-14T16:14:40.885Z,11.12
2023-02-14T16:17:13.519Z,10.90
2023-02-14T16:19:42.948Z,10.63
2023-02-14T16:22:11.847Z,10.41
2023-02-14T16:24:40.279Z,10.17
2023-02-14T16:27:07.788Z,10.08
2023-02-14T16:29:36.653Z,9.95
2023-02-14T16:32:16.954Z,9.75
2023-02-14T16:34:46.983Z,9.69
2023-02-14T16:37:22.220Z,9.55
2023-02-14T16:39:50.767Z,9.41
2023-02-14T16:42:19.069Z,9.29
2023-02-14T16:44:47.371Z,9.26
2023-02-14T16:47:18.385Z,9.13
2023-02-14T16:49:46.922Z,8.98
2023-02-14T16:52:17.210Z,8.86
2023-02-14T16:54:44.908Z,8.70
2023-02-14T16:57:18.180Z,8.55
2023-02-14T16:59:45.659Z,8.46
2023-02-14T17:02:13.736Z,8.06
2023-02-14T17:04:42.568Z,8.11
2023-02-14T17:07:10.280Z,7.97
2023-02-14T17:09:41.465Z,7.82
2023-02-14T17:12:15.985Z,7.65
2023-02-14T17:14:46.568Z,7.48
2023-02-14T17:17:14.477Z,7.34
2023-02-14T17:19:43.880Z,7.16
2023-02-14T17:22:13.647Z,7.02
2023-02-14T17:24:41.431Z,6.72
2023-02-14T17:27:09.698Z,6.84
2023-02-14T17:29:37.145Z,6.70
2023-02-14T17:32:04.866Z,6.61
2023-02-14T17:34:32.553Z,6.44
2023-02-14T17:37:02.737Z,6.33
2023-02-14T17:39:30.165Z,5.85
2023-02-14T17:41:57.674Z,6.16
2023-02-14T17:44:25.108Z,6.03
2023-02-14T17:46:54.472Z,6.04
2023-02-14T17:49:21.897Z,6.15
2023-02-14T17:51:49.319Z,6.11
2023-02-14T17:54:18.566Z,5.92
2023-02-14T17:56:46.011Z,5.94
2023-02-14T17:59:13.413Z,5.93
2023-02-14T18:01:40.884Z,5.81
2023-02-14T18:04:08.392Z,5.69
2023-02-14T18:06:36.186Z,5.51
2023-02-14T18:09:06.023Z,5.36
2023-02-14T18:11:34.960Z,5.21
2023-02-14T18:14:04.364Z,5.04
2023-02-14T18:16:31.879Z,4.91
2023-02-14T18:19:02.823Z,4.74
2023-02-14T18:21:34.406Z,4.56
2023-02-14T18:24:01.961Z,4.35
2023-02-14T18:26:29.698Z,4.25
2023-02-14T18:28:58.496Z,4.18
2023-02-14T18:31:26.181Z,4.11
2023-02-14T18:33:54.829Z,4.11
2023-02-14T18:36:24.045Z,4.04
2023-02-14T18:38:51.853Z,3.82
2023-02-14T18:41:20.671Z,3.78
2023-02-14T18:43:51.144Z,3.69
2023-02-14T18:46:26.289Z,3.61
2023-02-14T18:48:59.944Z,3.37
2023-02-14T18:51:29.818Z,3.05
2023-02-14T18:53:59.435Z,3.14
2023-02-14T18:56:28.981Z,3.21
2023-02-14T18:59:02.423Z,2.96
2023-02-14T19:01:36.691Z,2.77
2023-02-14T19:04:08.010Z,2.93
2023-02-14T19:06:38.618Z,3.01
2023-02-14T19:09:10.000Z,2.68
2023-02-14T19:11:39.793Z,3.22
2023-02-14T19:14:10.069Z,3.20
2023-02-14T19:16:43.770Z,3.19
2023-02-14T19:19:12.255Z,3.27
2023-02-14T19:21:39.899Z,3.23
2023-02-14T19:24:09.460Z,2.97
2023-02-14T19:26:40.484Z,3.34
2023-02-14T19:29:10.525Z,3.13
2023-02-14T19:31:42.061Z,3.07
2023-02-14T19:34:16.786Z,3.19
2023-02-14T19:36:44.663Z,3.11
2023-02-14T19:39:13.538Z,2.98
2023-02-14T19:41:41.705Z,2.93
2023-02-14T19:44:10.377Z,2.78
2023-02-14T19:46:39.572Z,2.75
2023-02-14T19:49:07.568Z,2.70
2023-02-14T19:51:36.963Z,2.63
2023-02-14T19:54:07.202Z,2.34
2023-02-14T19:56:37.512Z,2.59
2023-02-14T19:59:08.906Z,2.30
2023-02-14T20:01:41.320Z,2.39
2023-02-14T20:04:13.692Z,2.16
2023-02-14T20:06:42.016Z,2.17
2023-02-14T20:09:10.195Z,2.12
2023-02-14T20:11:41.439Z,1.80
2023-02-14T20:14:09.942Z,1.88
2023-02-14T20:16:41.838Z,2.02
2023-02-14T20:19:12.830Z,1.76
2023-02-14T20:21:42.216Z,1.90
2023-02-14T20:24:10.854Z,1.62
2023-02-14T20:26:41.527Z,1.98
2023-02-14T20:29:11.152Z,2.08
2023-02-14T20:31:43.221Z,2.19
2023-02-14T20:34:11.608Z,2.37
2023-02-14T20:36:39.854Z,2.46
2023-02-14T20:39:10.540Z,2.63
2023-02-14T20:41:38.181Z,2.80
2023-02-14T20:44:08.204Z,2.82
2023-02-14T20:46:38.288Z,2.70
2023-02-14T20:49:12.264Z,2.72
2023-02-14T20:51:40.614Z,2.80
2023-02-14T20:54:08.293Z,2.77
2023-02-14T20:56:35.984Z,2.73
2023-02-14T20:59:03.682Z,2.51
2023-02-14T21:01:31.493Z,2.72
2023-02-14T21:03:59.116Z,2.53
2023-02-14T21:06:33.726Z,2.30
2023-02-14T21:09:02.315Z,2.14
2023-02-14T21:11:30.295Z,2.38
2023-02-14T21:13:59.945Z,2.47
2023-02-14T21:16:29.606Z,1.97
2023-02-14T21:18:59.856Z,1.95
2023-02-14T21:21:35.265Z,1.90
2023-02-14T21:24:04.598Z,1.98
2023-02-14T21:26:32.441Z,1.78
2023-02-14T21:29:00.235Z,1.85
2023-02-14T21:31:28.148Z,1.66
2023-02-14T21:33:57.845Z,1.49
2023-02-14T21:36:26.621Z,1.43
2023-02-14T21:38:58.371Z,1.28
2023-02-14T21:41:27.815Z,0.79
2023-02-14T21:43:56.315Z,0.91
2023-02-14T21:46:27.452Z,1.10
2023-02-14T21:49:13.198Z,0.74
2023-02-14T21:51:43.056Z,0.96
2023-02-14T21:54:12.716Z,0.87
2023-02-14T21:56:43.870Z,0.43
2023-02-14T21:59:12.084Z,0.62
2023-02-14T22:01:42.151Z,0.60
2023-02-14T22:04:12.484Z,0.60
2023-02-14T22:06:41.931Z,0.92
2023-02-14T22:09:11.040Z,0.49
2023-02-14T22:11:42.536Z,1.00
2023-02-14T22:14:10.230Z,0.94
2023-02-14T22:16:40.713Z,1.05
2023-02-14T22:19:09.988Z,1.22
2023-02-14T22:21:37.829Z,1.33
2023-02-14T22:24:06.044Z,1.46
2023-02-14T22:26:35.471Z,1.46
2023-02-14T22:29:04.551Z,1.21
2023-02-14T22:31:36.814Z,1.26
2023-02-14T22:34:04.570Z,1.16
2023-02-14T22:36:32.130Z,1.10
2023-02-14T22:38:59.706Z,1.07
2023-02-14T22:41:27.533Z,1.13
2023-02-14T22:43:55.829Z,0.99
2023-02-14T22:46:27.115Z,1.00
2023-02-14T22:48:55.608Z,1.01
2023-02-14T22:51:25.497Z,1.15
2023-02-14T22:53:55.494Z,1.13
2023-02-14T22:56:24.834Z,1.10
2023-02-14T22:58:55.048Z,1.03
2023-02-14T23:01:24.640Z,1.04
2023-02-14T23:03:54.803Z,1.00
2023-02-14T23:06:22.981Z,0.98
2023-02-14T23:08:50.983Z,1.04
2023-02-14T23:11:20.173Z,1.06
2023-02-14T23:14:04.977Z,1.16
2023-02-14T23:16:51.525Z,1.04
2023-02-14T23:19:38.614Z,1.28
2023-02-14T23:22:08.112Z,1.29
2023-02-14T23:24:35.868Z,1.36
2023-02-14T23:27:03.880Z,1.38
2023-02-14T23:29:31.660Z,1.41
2023-02-14T23:32:00.612Z,1.45
2023-02-14T23:34:28.590Z,1.44
2023-02-14T23:36:56.027Z,1.53
2023-02-14T23:39:24.118Z,1.65
2023-02-14T23:41:51.682Z,1.76
2023-02-14T23:44:20.962Z,1.75
2023-02-14T23:46:49.530Z,1.62
2023-02-14T23:49:19.084Z,1.67
2023-02-14T23:51:48.497Z,1.63
2023-02-14T23:54:16.048Z,1.55
2023-02-14T23:56:45.164Z,1.35
2023-02-14T23:59:14.827Z,1.34
